KSAN

San Diego International Airport

San Diego, California, USA
METAR KSAN 230851Z 34003KT 9SM FEW020 SCT200 BKN250 17/14 A2990 RMK AO2 SLP126 T01670144 53002
Observed Flight Rules
Oct-23 @ 08:51 UTC (54 minutes ago) Visual Flight Rules
Wind Visibility Clouds
340° at 3 knots 9 miles
  • Few at 2,000' AGL
  • Scattered at 20,000' AGL
  • Broken at 25,000' AGL
Temperatures Readings
Current 17°C / 63°F
Dewpoint 14°C / 57°F
Humidity 83%
Altimeter 29.9" Hg
Pressure 1012.6 hPa
Elevation 12
METAR KSAN 230851Z 34003KT 9SM FEW020 SCT200 BKN250 17/14 A2990 RMK AO2 SLP126 T01670144 53002
Observed Flight Rules
Oct-23 @ 08:51 UTC
(54 minutes ago)
VFR
Wind Visibility
340° at 3 knots 9 miles
Clouds
  • Few at 2,000' AGL
  • Scattered at 20,000' AGL
  • Broken at 25,000' AGL
Temperature Dewpoint
17°C / 63°F 14°C / 57°F
Humidity Altimeter Pressure
83% 29.9" Hg 1012.6 hPa